Aérodrome :
LOGIN :

S'inscrire | Disclaimer

   EN    FR    IT 

 










Légende :    VFR   VFR Marginal   IFR   IFR Intensif   IFR Très Intensif
Visi : 
Plafond : 
>= 8 km
>= 3000ft
5 à 8 km
1000 à 3000 ft
1500m à 5 km
500 à 1000 ft
800 à 1500m
200 à 500 ft
< 800m
< 200 ft
Symboles :   Orages  Brouillard  Fortes neiges  Fortes précipitations  Vent > 20 kt
SIGMETs :   Divers  Orages  Givrage  Turbulence  Onde Orograph.  Cendres Volcan.







- Altitude de l'aérodrome : 5600 ft
- Code IATA : SMV


LSZS - Samedan

DERNIER METAR :
  • 190320Z AUTO 11001KT 9999 FEW005 10/09 Q1021

METARs EXPIRÉS :
  • 190250Z AUTO 03002KT 9999 -RA BKN080 10/10 Q1022
  • 190220Z AUTO VRB02KT 9999 -RA BKN070 10/10 Q1022
  • 190150Z AUTO VRB02KT 7000 RA BKN060TCU 10/10 Q1022
  • 190120Z AUTO 27004KT 240V310 3500 RA BR BKN050CB 11/10 Q1023
  • 190050Z AUTO 07006KT 030V130 9000 RA BKN046CB 12/09 Q1022

Prévision TAF périmée.
ATIS : +41 81 834 93 24
Pas de NOTAMs connus pour ce terrain.



MET'MAP, la Météo Aéronautique d'un coup d'oeil ! - Copyright ORBIFLY Décembre 2007 - Disclaimer

ORBIFLY MET'MAP TEAM :

Programmation & Développement : Alexandra Zaïnal
Conception & Développement : Baudouin d'Aumeries
Co-Programmation & Développement : Marc-Olivier Méhu
Soutien technique & logistique : Manuel Goepfert

Contact : metmap@orbifly.com




SOURCES & CREDITS :

   NOAA